Terminal Aerodrome Forecast
Issued by NWS

Home | Current Version | Previous Version | Text Only | Print | Product List | Glossary On
Versions: 1 2 3 4 5 6 7 8 9 10 11 12 13 14 15 16 17
000
FTUS46 KLOX 211700
TAFVNY
TAF
KVNY 211737Z 2118/2218 00000KT P6SM SKC
     FM212000 14008KT P6SM SKC
     FM220400 VRB03KT P6SM SKC
     FM221000 VRB03KT 4SM BR OVC008=

USA.gov is the U.S. government's official web portal to all federal, state and local government web resources and services.